Chestnut Hill, Connecticut
Current Conditions -  °F | °C
As of 4:52 PM on Saturday 25 Oct 2014 (Local Time) from KIJD Reporting Station
Clear Clear  
Wind Chill: 64°   Ceiling: Unl
Heat Index: 64°   Visibility: 10mi
Dew Point: 41°   Wind: 6mph
Humidity: 43%   Direction: NA
Pressure: 29.62"   Gusts: NA
Location:  41.7073°N, 72.2065°W
Report Text: KIJD 252052Z AUTO VRB05KT 10SM CLR 18/05 A2962 RMK AO2 SLP031 T01780050 56021
Loading
Personal Weather Stations






























Interactive Weather Map
Tropical Storm Tracking
New forecast layout! Learn more

10-Day Weather Forecast

Advertisements
Track Severe Weather on mobile